Time;durP1;ratioP1;P1;durP2;ratioP2;P2;SDS_P1;SDS_P2;PMS_P1;PMS_P2;Temp;Humidity;BMP_temperature;BMP_pressure;BME280_temperature;BME280_humidity;BME280_pressure;Samples;Min_cycle;Max_cycle;Signal;HPM_P1;HPM_P2
2023/07/08 00:01:13;;;;;;;82.85;26.60;;;;;;;;;;5071412;28;20024;-47
2023/07/08 00:03:40;;;;;;;77.47;29.33;;;;;;;;;;5069847;28;20024;-48
2023/07/08 00:06:27;;;;;;;84.63;28.00;;;;;;;;;;5070459;28;20119;-45
2023/07/08 00:08:54;;;;;;;79.00;24.98;;;;;;;;;;5069123;28;20038;-46
2023/07/08 00:11:21;;;;;;;70.68;23.27;;;;;;;;;;5070617;28;20035;-44
2023/07/08 00:13:48;;;;;;;65.10;22.17;;;;;;;;;;5070522;28;20028;-46
2023/07/08 00:16:16;;;;;;;70.68;23.65;;;;;;;;;;5071220;28;20111;-44
2023/07/08 00:18:43;;;;;;;69.15;23.15;;;;;;;;;;5071036;28;20032;-46
2023/07/08 00:21:15;;;;;;;65.68;22.00;;;;;;;;;;5069605;28;20033;-45
2023/07/08 00:23:59;;;;;;;65.72;20.80;;;;;;;;;;5069127;28;20064;-44
2023/07/08 00:26:27;;;;;;;54.45;20.05;;;;;;;;;;5050974;28;20055;-46
2023/07/08 00:28:55;;;;;;;61.85;20.05;;;;;;;;;;5069327;28;20036;-46
2023/07/08 00:31:25;;;;;;;57.28;20.50;;;;;;;;;;5069872;28;20032;-45
2023/07/08 00:33:56;;;;;;;55.97;19.50;;;;;;;;;;5069949;28;20031;-47
2023/07/08 00:36:24;;;;;;;51.63;18.45;;;;;;;;;;5068497;28;20074;-45
2023/07/08 00:38:51;;;;;;;46.53;17.67;;;;;;;;;;5067617;28;20478;-45
2023/07/08 00:41:25;;;;;;;46.22;17.10;;;;;;;;;;5067169;28;20136;-45
2023/07/08 00:43:53;;;;;;;42.70;17.27;;;;;;;;;;5066820;28;20110;-46
2023/07/08 00:46:26;;;;;;;38.65;16.02;;;;;;;;;;5064885;28;20119;-47
2023/07/08 00:48:56;;;;;;;47.83;16.45;;;;;;;;;;5066399;28;20068;-45
2023/07/08 00:51:23;;;;;;;42.20;15.85;;;;;;;;;;5067772;28;20553;-46
2023/07/08 00:53:50;;;;;;;41.67;16.17;;;;;;;;;;5071187;28;20040;-47
2023/07/08 00:56:20;;;;;;;44.38;14.68;;;;;;;;;;5052333;28;20078;-45
2023/07/08 00:58:50;;;;;;;44.13;15.27;;;;;;;;;;5069277;28;20055;-45
2023/07/08 01:01:17;;;;;;;41.38;15.43;;;;;;;;;;5070326;28;20024;-46
2023/07/08 01:03:55;;;;;;;39.35;14.75;;;;;;;;;;5070175;28;20067;-44
2023/07/08 01:06:31;;;;;;;38.95;14.90;;;;;;;;;;5069751;28;20029;-45
2023/07/08 01:09:02;;;;;;;37.70;14.57;;;;;;;;;;5070469;28;20040;-44
2023/07/08 01:11:30;;;;;;;35.77;13.47;;;;;;;;;;5070810;28;20036;-45
2023/07/08 01:13:58;;;;;;;36.17;13.32;;;;;;;;;;5072053;28;20357;-45
2023/07/08 01:16:25;;;;;;;30.90;12.75;;;;;;;;;;5053579;28;20557;-47
2023/07/08 01:18:55;;;;;;;29.67;11.98;;;;;;;;;;5068827;28;20063;-45
2023/07/08 01:24:11;;;;;;;32.08;12.93;;;;;;;;;;5128131;27;20116;-44
2023/07/08 01:26:45;;;;;;;33.70;12.88;;;;;;;;;;5127661;28;20015;-45
2023/07/08 01:29:13;;;;;;;33.58;12.52;;;;;;;;;;5119372;28;20077;-44
2023/07/08 01:31:40;;;;;;;31.38;12.38;;;;;;;;;;5114965;28;20564;-46
2023/07/08 01:34:09;;;;;;;32.83;11.80;;;;;;;;;;5117654;28;20022;-44
2023/07/08 01:36:40;;;;;;;30.42;10.32;;;;;;;;;;5118571;28;20019;-44
2023/07/08 01:39:07;;;;;;;35.15;11.57;;;;;;;;;;5118450;28;20057;-45
2023/07/08 01:41:34;;;;;;;33.47;10.52;;;;;;;;;;5114478;28;20035;-45
2023/07/08 01:44:01;;;;;;;28.05;10.82;;;;;;;;;;5118517;28;20035;-45
2023/07/08 01:46:28;;;;;;;23.20;9.93;;;;;;;;;;5117237;28;20103;-45
2023/07/08 01:48:57;;;;;;;23.83;9.60;;;;;;;;;;5115656;28;20024;-45
2023/07/08 01:51:26;;;;;;;24.00;9.32;;;;;;;;;;5116961;28;20488;-45
2023/07/08 01:53:53;;;;;;;23.67;9.32;;;;;;;;;;5120632;28;20026;-44
2023/07/08 01:56:20;;;;;;;25.92;9.90;;;;;;;;;;5122865;28;20027;-44
2023/07/08 01:58:47;;;;;;;25.42;9.90;;;;;;;;;;5129476;28;20103;-44
2023/07/08 02:01:14;;;;;;;21.45;8.77;;;;;;;;;;5129232;28;20434;-45
2023/07/08 02:03:42;;;;;;;22.73;8.82;;;;;;;;;;5129235;28;20027;-45
2023/07/08 02:06:09;;;;;;;21.02;9.55;;;;;;;;;;5110771;28;20027;-44
2023/07/08 02:08:36;;;;;;;21.02;8.48;;;;;;;;;;5129060;28;20114;-44
2023/07/08 02:11:03;;;;;;;23.08;8.70;;;;;;;;;;5129140;28;20027;-44
2023/07/08 02:13:30;;;;;;;19.17;8.35;;;;;;;;;;5129080;28;20088;-46
2023/07/08 02:15:57;;;;;;;17.35;8.40;;;;;;;;;;5129137;28;20020;-44
2023/07/08 02:18:24;;;;;;;18.98;8.70;;;;;;;;;;5129133;28;20035;-44
2023/07/08 02:20:52;;;;;;;14.57;7.22;;;;;;;;;;5129002;28;20023;-44
2023/07/08 02:23:19;;;;;;;19.60;8.27;;;;;;;;;;5128770;28;20066;-44
2023/07/08 02:25:56;;;;;;;17.63;7.35;;;;;;;;;;5129006;28;20028;-47
2023/07/08 02:28:23;;;;;;;16.13;7.65;;;;;;;;;;5128849;28;20019;-44
2023/07/08 02:30:50;;;;;;;16.88;7.80;;;;;;;;;;5128694;28;20027;-44
2023/07/08 02:33:17;;;;;;;15.82;7.28;;;;;;;;;;5128054;28;20035;-45
2023/07/08 02:35:45;;;;;;;16.40;7.97;;;;;;;;;;5114706;28;20491;-44
2023/07/08 02:38:12;;;;;;;14.38;7.03;;;;;;;;;;5114860;28;20066;-44
2023/07/08 02:40:39;;;;;;;16.58;7.13;;;;;;;;;;5114910;28;20096;-45
2023/07/08 02:43:06;;;;;;;15.70;7.03;;;;;;;;;;5114932;28;20070;-45
2023/07/08 02:45:33;;;;;;;13.70;6.85;;;;;;;;;;5114930;28;20042;-44
2023/07/08 02:48:00;;;;;;;16.05;6.75;;;;;;;;;;5114946;28;20028;-44
2023/07/08 02:50:27;;;;;;;17.27;6.60;;;;;;;;;;5114558;28;20028;-45
2023/07/08 02:52:54;;;;;;;20.15;7.68;;;;;;;;;;5114760;28;20027;-44
2023/07/08 02:55:21;;;;;;;12.00;6.50;;;;;;;;;;5096270;28;20761;-45
2023/07/08 02:57:48;;;;;;;12.95;6.03;;;;;;;;;;5114678;28;20028;-44
2023/07/08 03:00:15;;;;;;;13.07;6.30;;;;;;;;;;5114406;28;20535;-44
2023/07/08 03:02:42;;;;;;;12.25;5.68;;;;;;;;;;5114509;28;20039;-46
2023/07/08 03:05:09;;;;;;;11.13;5.82;;;;;;;;;;5100915;28;20626;-46
2023/07/08 03:07:36;;;;;;;11.52;6.30;;;;;;;;;;5094151;28;20043;-44
2023/07/08 03:10:03;;;;;;;11.68;5.80;;;;;;;;;;5093961;28;20028;-45
2023/07/08 03:12:30;;;;;;;13.98;5.97;;;;;;;;;;5094068;28;20024;-46
2023/07/08 03:14:57;;;;;;;12.20;6.10;;;;;;;;;;5075771;28;20038;-48
2023/07/08 03:17:24;;;;;;;10.73;5.20;;;;;;;;;;5093889;28;20028;-44
2023/07/08 03:19:51;;;;;;;10.65;5.45;;;;;;;;;;5093601;28;20081;-45
2023/07/08 03:22:19;;;;;;;10.55;5.50;;;;;;;;;;5093439;28;20497;-44
2023/07/08 03:24:46;;;;;;;11.00;5.38;;;;;;;;;;5093822;28;20042;-44
2023/07/08 03:27:16;;;;;;;10.90;5.05;;;;;;;;;;5093787;28;20028;-44
2023/07/08 03:29:43;;;;;;;10.65;5.20;;;;;;;;;;5093616;28;20028;-44
2023/07/08 03:32:12;;;;;;;12.13;5.40;;;;;;;;;;5093627;28;20115;-44
2023/07/08 03:34:39;;;;;;;12.05;5.22;;;;;;;;;;5093538;28;20103;-44
2023/07/08 03:37:07;;;;;;;9.20;5.22;;;;;;;;;;5093566;28;20024;-44
2023/07/08 03:39:34;;;;;;;11.48;5.32;;;;;;;;;;5093340;28;20024;-44
2023/07/08 03:42:01;;;;;;;12.57;5.30;;;;;;;;;;5093419;28;20032;-45
2023/07/08 03:44:28;;;;;;;8.52;4.72;;;;;;;;;;5093388;28;20055;-45
2023/07/08 03:46:55;;;;;;;10.95;5.00;;;;;;;;;;5092270;28;20036;-45
2023/07/08 03:49:23;;;;;;;9.13;4.78;;;;;;;;;;5093276;28;20488;-44
2023/07/08 03:51:51;;;;;;;8.10;4.40;;;;;;;;;;5093111;28;20024;-44
2023/07/08 03:54:19;;;;;;;11.15;4.60;;;;;;;;;;5093182;28;20024;-45
2023/07/08 03:56:46;;;;;;;11.35;4.88;;;;;;;;;;5093210;28;20016;-45
2023/07/08 03:59:13;;;;;;;9.15;4.65;;;;;;;;;;5093035;28;20398;-44
2023/07/08 04:01:41;;;;;;;9.60;4.43;;;;;;;;;;5093071;28;20020;-44
2023/07/08 04:04:09;;;;;;;8.32;4.05;;;;;;;;;;5092985;28;20125;-47
2023/07/08 04:06:36;;;;;;;10.27;4.32;;;;;;;;;;5092709;28;20039;-44
2023/07/08 04:09:03;;;;;;;9.45;4.65;;;;;;;;;;5092815;28;20040;-45
2023/07/08 04:11:30;;;;;;;7.57;3.97;;;;;;;;;;5092874;28;20130;-44
2023/07/08 04:13:57;;;;;;;7.38;3.75;;;;;;;;;;5092866;28;20390;-45
2023/07/08 04:16:28;;;;;;;6.53;4.10;;;;;;;;;;5092814;28;20028;-46
2023/07/08 04:18:55;;;;;;;6.20;3.72;;;;;;;;;;5092567;28;20028;-44
2023/07/08 04:21:24;;;;;;;10.43;4.07;;;;;;;;;;5092583;28;20435;-45
2023/07/08 04:23:51;;;;;;;7.93;3.80;;;;;;;;;;5092233;28;20131;-44
2023/07/08 04:26:21;;;;;;;6.97;4.03;;;;;;;;;;5092634;28;20020;-44
2023/07/08 04:28:48;;;;;;;8.68;3.88;;;;;;;;;;5092510;28;20393;-44
2023/07/08 04:31:15;;;;;;;6.13;3.95;;;;;;;;;;5092276;28;20031;-44
2023/07/08 04:33:42;;;;;;;10.48;4.03;;;;;;;;;;5092349;28;20482;-44
2023/07/08 04:36:12;;;;;;;7.20;3.75;;;;;;;;;;5092319;28;20035;-45
2023/07/08 04:38:41;;;;;;;8.15;3.70;;;;;;;;;;5092441;28;20036;-46
2023/07/08 04:41:08;;;;;;;7.03;3.47;;;;;;;;;;5092189;28;20063;-44
2023/07/08 04:43:35;;;;;;;9.75;3.53;;;;;;;;;;5092205;28;20037;-44
2023/07/08 04:46:02;;;;;;;5.80;3.30;;;;;;;;;;5092296;28;20024;-44
2023/07/08 04:48:29;;;;;;;7.22;3.30;;;;;;;;;;5092204;28;20028;-44
2023/07/08 04:50:57;;;;;;;6.25;3.28;;;;;;;;;;5092057;28;20503;-44
2023/07/08 04:53:24;;;;;;;6.10;3.05;;;;;;;;;;5092029;28;20055;-44
2023/07/08 04:55:53;;;;;;;6.22;3.40;;;;;;;;;;5092204;28;20730;-44
2023/07/08 04:58:20;;;;;;;5.03;2.95;;;;;;;;;;5091861;28;20020;-45
2023/07/08 05:00:47;;;;;;;5.18;2.90;;;;;;;;;;5091949;28;20381;-44
2023/07/08 05:03:14;;;;;;;6.03;3.05;;;;;;;;;;5091988;28;20165;-44
2023/07/08 05:05:41;;;;;;;6.80;3.00;;;;;;;;;;5091991;28;20542;-44
2023/07/08 05:08:09;;;;;;;6.40;2.85;;;;;;;;;;5092000;28;20154;-45
2023/07/08 05:10:36;;;;;;;6.07;2.85;;;;;;;;;;5091849;28;20047;-44
2023/07/08 05:13:03;;;;;;;5.07;3.22;;;;;;;;;;5091929;28;20024;-46
2023/07/08 05:15:30;;;;;;;5.03;2.72;;;;;;;;;;5091856;28;20031;-44
2023/07/08 05:17:57;;;;;;;5.75;2.63;;;;;;;;;;5091897;28;20020;-45
2023/07/08 05:20:24;;;;;;;4.60;2.67;;;;;;;;;;5091714;28;20110;-44
2023/07/08 05:22:51;;;;;;;5.22;2.75;;;;;;;;;;5091581;28;20393;-44
2023/07/08 05:25:20;;;;;;;5.93;2.63;;;;;;;;;;5091818;28;20028;-44
2023/07/08 05:27:47;;;;;;;6.07;2.58;;;;;;;;;;5091681;28;20035;-44
2023/07/08 05:30:16;;;;;;;4.32;2.47;;;;;;;;;;5091592;28;20024;-44
2023/07/08 05:32:43;;;;;;;4.07;2.45;;;;;;;;;;5091711;28;20028;-44
2023/07/08 05:35:11;;;;;;;6.05;2.75;;;;;;;;;;5091675;28;20016;-45
2023/07/08 05:37:39;;;;;;;4.35;2.45;;;;;;;;;;5091671;28;20086;-44
2023/07/08 05:40:07;;;;;;;4.28;2.47;;;;;;;;;;5091487;28;20070;-45
2023/07/08 05:42:34;;;;;;;5.30;2.95;;;;;;;;;;5091391;28;20127;-44
2023/07/08 05:45:01;;;;;;;4.38;2.22;;;;;;;;;;5091589;28;20076;-45
2023/07/08 05:47:28;;;;;;;5.35;2.78;;;;;;;;;;5091585;28;20031;-45
2023/07/08 05:49:55;;;;;;;4.32;2.40;;;;;;;;;;5091413;28;20054;-45
2023/07/08 05:52:22;;;;;;;4.45;2.40;;;;;;;;;;5093025;28;20024;-45
2023/07/08 05:54:49;;;;;;;3.22;2.25;;;;;;;;;;5111770;28;20023;-44
2023/07/08 05:57:16;;;;;;;4.25;2.28;;;;;;;;;;5112010;28;20632;-46
2023/07/08 05:59:43;;;;;;;3.92;2.10;;;;;;;;;;5111746;28;20388;-45
2023/07/08 06:02:12;;;;;;;4.35;1.92;;;;;;;;;;5092473;28;20031;-44
2023/07/08 06:04:39;;;;;;;3.38;2.33;;;;;;;;;;5111284;28;20050;-44
2023/07/08 06:07:06;;;;;;;3.70;2.28;;;;;;;;;;5108292;28;20024;-44
2023/07/08 06:09:33;;;;;;;4.05;2.25;;;;;;;;;;5101427;28;20032;-44
2023/07/08 06:12:00;;;;;;;4.78;2.20;;;;;;;;;;5102722;28;20035;-44
2023/07/08 06:14:28;;;;;;;3.13;2.10;;;;;;;;;;5114876;28;20034;-46
2023/07/08 06:16:55;;;;;;;3.00;2.00;;;;;;;;;;5110281;28;20024;-45
2023/07/08 06:19:22;;;;;;;6.35;2.63;;;;;;;;;;5115288;28;20552;-46
2023/07/08 06:21:49;;;;;;;6.95;2.00;;;;;;;;;;5111764;28;20019;-47
2023/07/08 06:24:16;;;;;;;7.18;2.25;;;;;;;;;;5109400;28;20123;-45
2023/07/08 06:26:43;;;;;;;7.10;2.35;;;;;;;;;;5115252;28;20027;-44
2023/07/08 06:29:10;;;;;;;3.92;2.10;;;;;;;;;;5114986;28;20476;-48
2023/07/08 06:31:37;;;;;;;5.40;2.03;;;;;;;;;;5115260;28;20019;-46
2023/07/08 06:34:04;;;;;;;7.60;2.60;;;;;;;;;;5115131;28;20028;-45
2023/07/08 06:36:31;;;;;;;6.07;2.50;;;;;;;;;;5115117;28;20445;-45
2023/07/08 06:38:59;;;;;;;4.38;2.10;;;;;;;;;;5114969;28;20024;-47
2023/07/08 06:41:26;;;;;;;5.43;2.05;;;;;;;;;;5096647;28;20434;-45
2023/07/08 06:43:53;;;;;;;4.45;2.17;;;;;;;;;;5114954;28;20042;-45
2023/07/08 06:46:20;;;;;;;9.10;2.10;;;;;;;;;;5096609;28;20031;-45
2023/07/08 06:48:47;;;;;;;7.47;2.20;;;;;;;;;;5114934;28;20670;-45
2023/07/08 06:51:14;;;;;;;6.78;2.42;;;;;;;;;;5114955;28;20015;-47
2023/07/08 06:53:41;;;;;;;5.50;2.17;;;;;;;;;;5114887;28;20118;-45
2023/07/08 06:58:51;;;;;;;8.75;1.80;;;;;;;;;;5019981;22;20069;-61
2023/07/08 07:01:18;;;;;;;4.38;2.28;;;;;;;;;;4995417;28;20026;-61
2023/07/08 07:03:45;;;;;;;6.13;1.98;;;;;;;;;;4994606;28;20085;-61
2023/07/08 07:06:12;;;;;;;3.17;1.95;;;;;;;;;;4994697;28;20037;-62
2023/07/08 07:08:39;;;;;;;6.25;1.85;;;;;;;;;;4977040;28;20030;-61
2023/07/08 07:11:06;;;;;;;4.43;1.75;;;;;;;;;;4994538;28;20054;-61
2023/07/08 07:13:33;;;;;;;3.50;1.95;;;;;;;;;;4994398;28;20431;-61
2023/07/08 07:16:00;;;;;;;4.25;1.70;;;;;;;;;;4994472;28;20034;-61
2023/07/08 07:18:27;;;;;;;3.88;2.00;;;;;;;;;;4994695;28;20033;-61
2023/07/08 07:20:55;;;;;;;4.18;2.15;;;;;;;;;;4994257;28;20333;-62
2023/07/08 07:23:22;;;;;;;3.40;1.92;;;;;;;;;;4976745;28;20046;-62
2023/07/08 07:25:49;;;;;;;4.05;1.98;;;;;;;;;;4994264;28;20030;-61
2023/07/08 07:28:16;;;;;;;4.18;1.98;;;;;;;;;;4994234;28;20603;-62
2023/07/08 07:30:47;;;;;;;4.93;1.63;;;;;;;;;;4994186;28;20038;-61
2023/07/08 07:33:14;;;;;;;4.32;2.00;;;;;;;;;;4994165;28;20032;-61
2023/07/08 07:35:45;;;;;;;5.70;2.13;;;;;;;;;;4976604;28;20404;-62
2023/07/08 07:38:12;;;;;;;5.50;1.80;;;;;;;;;;4993999;28;20058;-61
2023/07/08 07:40:40;;;;;;;5.15;1.70;;;;;;;;;;4994034;28;20447;-62
2023/07/08 07:43:07;;;;;;;4.47;2.00;;;;;;;;;;4993883;28;20132;-61
2023/07/08 07:45:34;;;;;;;3.65;1.80;;;;;;;;;;4994012;28;20019;-61
2023/07/08 07:48:01;;;;;;;3.22;1.70;;;;;;;;;;4993672;28;20030;-61
2023/07/08 07:50:28;;;;;;;4.50;1.80;;;;;;;;;;4993827;28;20141;-61
2023/07/08 07:52:56;;;;;;;5.20;2.00;;;;;;;;;;4976325;28;20033;-61
2023/07/08 07:55:23;;;;;;;2.50;1.70;;;;;;;;;;4993693;28;20093;-61
2023/07/08 07:57:50;;;;;;;4.22;1.70;;;;;;;;;;4993483;28;20054;-61
2023/07/08 08:00:17;;;;;;;3.08;1.50;;;;;;;;;;4993680;28;20022;-61
2023/07/08 08:02:44;;;;;;;2.92;1.60;;;;;;;;;;4993545;28;20034;-61
2023/07/08 08:05:11;;;;;;;3.47;1.63;;;;;;;;;;4993717;28;20035;-61
2023/07/08 08:07:40;;;;;;;2.58;1.58;;;;;;;;;;4993411;28;20049;-60
2023/07/08 08:10:07;;;;;;;3.65;1.80;;;;;;;;;;4993352;28;20027;-61
2023/07/08 08:12:34;;;;;;;3.22;1.67;;;;;;;;;;4993704;28;20119;-61
2023/07/08 08:15:01;;;;;;;3.47;1.70;;;;;;;;;;4993315;28;20026;-61
2023/07/08 08:17:28;;;;;;;3.30;1.70;;;;;;;;;;4993232;28;20030;-61
2023/07/08 08:19:55;;;;;;;2.92;1.60;;;;;;;;;;4993284;28;20085;-62
2023/07/08 08:22:22;;;;;;;4.70;1.60;;;;;;;;;;4993096;28;20038;-61
2023/07/08 08:24:50;;;;;;;3.72;1.70;;;;;;;;;;4993230;28;20487;-61
2023/07/08 08:27:17;;;;;;;3.58;1.50;;;;;;;;;;4975598;28;20061;-61
2023/07/08 08:29:44;;;;;;;3.13;1.50;;;;;;;;;;4993085;28;20026;-61
2023/07/08 08:32:11;;;;;;;5.90;1.85;;;;;;;;;;4992556;28;20026;-61
2023/07/08 08:34:38;;;;;;;3.65;1.75;;;;;;;;;;4992986;28;20483;-60
2023/07/08 08:37:05;;;;;;;2.83;1.35;;;;;;;;;;4992893;28;20125;-61
2023/07/08 08:39:32;;;;;;;2.28;1.52;;;;;;;;;;4992886;28;20034;-61
2023/07/08 08:41:59;;;;;;;3.60;1.60;;;;;;;;;;4992814;28;20419;-61
2023/07/08 08:44:36;;;;;;;3.40;1.52;;;;;;;;;;4975243;28;20392;-61
2023/07/08 08:47:21;;;;;;;1.95;1.42;;;;;;;;;;4992727;28;20039;-61
2023/07/08 08:49:52;;;;;;;3.67;1.58;;;;;;;;;;4992767;28;20061;-61
2023/07/08 08:52:19;;;;;;;3.53;1.23;;;;;;;;;;4992775;28;20397;-61
2023/07/08 08:54:46;;;;;;;2.83;1.58;;;;;;;;;;4992677;28;20042;-61
2023/07/08 08:57:31;;;;;;;2.10;1.30;;;;;;;;;;4992434;28;20511;-61
2023/07/08 08:59:59;;;;;;;3.85;1.52;;;;;;;;;;4992617;28;20030;-61
2023/07/08 09:02:33;;;;;;;2.10;1.30;;;;;;;;;;4992549;28;20046;-61
2023/07/08 09:05:07;;;;;;;4.50;1.52;;;;;;;;;;4992593;28;20073;-61
2023/07/08 09:07:40;;;;;;;2.40;1.40;;;;;;;;;;4992320;28;20029;-62
2023/07/08 09:10:36;;;;;;;2.13;1.27;;;;;;;;;;4992793;28;20022;-62
2023/07/08 09:13:04;;;;;;;3.05;1.42;;;;;;;;;;4939946;28;20032;-61
2023/07/08 09:15:31;;;;;;;3.28;1.63;;;;;;;;;;4992339;28;20034;-61
2023/07/08 09:18:00;;;;;;;2.25;1.40;;;;;;;;;;4992314;28;20265;-61
2023/07/08 09:20:31;;;;;;;2.28;1.30;;;;;;;;;;4992397;28;20076;-61
2023/07/08 09:23:20;;;;;;;3.05;1.52;;;;;;;;;;4987524;28;20042;-62
2023/07/08 09:25:52;;;;;;;2.45;1.40;;;;;;;;;;4992229;28;20490;-61
2023/07/08 09:28:19;;;;;;;2.72;1.45;;;;;;;;;;4992314;28;20046;-62
2023/07/08 09:30:54;;;;;;;2.22;1.30;;;;;;;;;;4992306;28;20081;-60
2023/07/08 09:33:21;;;;;;;2.13;1.27;;;;;;;;;;4992302;28;20030;-61
2023/07/08 09:35:48;;;;;;;3.30;1.30;;;;;;;;;;4992316;28;20045;-61
2023/07/08 09:38:17;;;;;;;4.40;1.52;;;;;;;;;;4992102;28;20522;-61
2023/07/08 09:40:56;;;;;;;2.35;1.23;;;;;;;;;;4992198;28;20022;-62
2023/07/08 09:43:26;;;;;;;1.65;1.25;;;;;;;;;;4992107;28;20054;-62
2023/07/08 09:45:56;;;;;;;2.38;1.30;;;;;;;;;;4995909;28;20019;-61
2023/07/08 09:48:27;;;;;;;1.70;1.08;;;;;;;;;;4996001;28;20491;-61
2023/07/08 09:50:57;;;;;;;2.47;1.08;;;;;;;;;;4996117;28;20026;-61
2023/07/08 09:53:24;;;;;;;1.95;1.30;;;;;;;;;;4996011;28;20034;-61
2023/07/08 09:55:52;;;;;;;2.35;1.27;;;;;;;;;;4995934;28;20095;-62
2023/07/08 09:58:24;;;;;;;1.60;1.10;;;;;;;;;;4995671;28;20520;-61
2023/07/08 10:00:54;;;;;;;2.17;1.35;;;;;;;;;;4995868;28;20022;-61
2023/07/08 10:03:32;;;;;;;2.17;1.10;;;;;;;;;;4995742;28;20027;-61
2023/07/08 10:06:03;;;;;;;3.05;1.23;;;;;;;;;;4978120;28;20073;-60
2023/07/08 10:08:39;;;;;;;3.58;1.27;;;;;;;;;;4995588;28;20125;-61
2023/07/08 10:11:17;;;;;;;2.13;1.10;;;;;;;;;;4995534;28;20388;-61
2023/07/08 10:13:49;;;;;;;2.22;1.17;;;;;;;;;;4995618;28;20542;-61
2023/07/08 10:16:16;;;;;;;;;;;;;;;;;;4995978;28;20476;-61
2023/07/08 10:18:43;;;;;;;1.75;1.10;;;;;;;;;;4995522;28;19932;-61
2023/07/08 10:21:28;;;;;;;2.78;1.10;;;;;;;;;;4995496;28;20106;-61
2023/07/08 10:24:01;;;;;;;2.30;1.27;;;;;;;;;;4995318;28;20089;-61
2023/07/08 10:26:29;;;;;;;1.85;1.00;;;;;;;;;;4995261;28;20084;-61
2023/07/08 10:29:14;;;;;;;2.55;1.10;;;;;;;;;;4995385;28;20029;-61
2023/07/08 10:31:54;;;;;;;2.35;1.20;;;;;;;;;;4995325;28;20031;-62
2023/07/08 10:34:33;;;;;;;3.55;1.00;;;;;;;;;;4995266;28;20113;-62
2023/07/08 10:37:03;;;;;;;1.75;0.98;;;;;;;;;;4995106;28;20522;-61
2023/07/08 10:39:42;;;;;;;2.15;1.10;;;;;;;;;;4995192;28;20073;-61
2023/07/08 10:42:30;;;;;;;2.67;1.23;;;;;;;;;;4995109;28;20022;-61
2023/07/08 10:45:11;;;;;;;4.35;1.20;;;;;;;;;;4995061;28;20026;-62
2023/07/08 10:47:40;;;;;;;1.35;0.90;;;;;;;;;;4994972;28;20109;-62
2023/07/08 10:50:11;;;;;;;1.70;1.13;;;;;;;;;;4994995;28;20480;-61
2023/07/08 10:52:52;;;;;;;3.22;1.20;;;;;;;;;;4994955;28;20077;-61
2023/07/08 10:55:39;;;;;;;1.95;1.10;;;;;;;;;;4994442;28;20027;-61
2023/07/08 10:58:24;;;;;;;1.42;0.80;;;;;;;;;;4994366;28;20050;-62
2023/07/08 11:00:51;;;;;;;2.30;1.00;;;;;;;;;;4994711;28;20106;-61
2023/07/08 11:03:18;;;;;;;2.58;1.17;;;;;;;;;;4994564;28;20097;-61
2023/07/08 11:05:47;;;;;;;1.00;0.80;;;;;;;;;;4994689;28;20459;-61
2023/07/08 11:08:31;;;;;;;1.60;1.00;;;;;;;;;;4994650;28;20065;-61
2023/07/08 11:11:01;;;;;;;2.38;1.10;;;;;;;;;;4994571;28;20031;-61
2023/07/08 11:13:30;;;;;;;1.88;0.90;;;;;;;;;;4994558;28;20038;-61
2023/07/08 11:16:08;;;;;;;2.15;1.05;;;;;;;;;;4994859;28;20431;-61
2023/07/08 11:18:38;;;;;;;1.25;0.80;;;;;;;;;;4994474;28;20081;-61
2023/07/08 11:21:08;;;;;;;2.97;1.13;;;;;;;;;;4994389;28;20026;-61
2023/07/08 11:23:47;;;;;;;1.90;1.10;;;;;;;;;;4994284;28;20038;-61
2023/07/08 11:26:24;;;;;;;1.63;0.95;;;;;;;;;;4994295;28;20034;-61
2023/07/08 11:28:54;;;;;;;1.98;1.00;;;;;;;;;;4994268;28;20088;-61
2023/07/08 11:31:23;;;;;;;1.73;1.00;;;;;;;;;;4994216;28;20038;-61
2023/07/08 11:33:51;;;;;;;2.42;1.17;;;;;;;;;;4994139;28;20066;-62
2023/07/08 11:36:20;;;;;;;2.67;1.00;;;;;;;;;;4994049;28;20022;-62
2023/07/08 11:38:51;;;;;;;2.42;0.95;;;;;;;;;;4994157;28;20038;-61
2023/07/08 11:41:19;;;;;;;1.52;0.98;;;;;;;;;;4994296;28;20030;-62
2023/07/08 11:43:51;;;;;;;1.75;0.90;;;;;;;;;;4993727;28;20034;-61
2023/07/08 11:46:25;;;;;;;1.63;0.80;;;;;;;;;;4993833;28;20114;-61
2023/07/08 11:48:53;;;;;;;1.40;0.93;;;;;;;;;;4993730;28;20065;-61
2023/07/08 11:51:25;;;;;;;1.98;1.10;;;;;;;;;;4993679;28;20447;-61
2023/07/08 11:54:08;;;;;;;1.40;0.90;;;;;;;;;;4993781;28;20034;-61
2023/07/08 11:56:53;;;;;;;1.85;1.10;;;;;;;;;;4993590;28;20026;-62
2023/07/08 11:59:21;;;;;;;1.60;1.02;;;;;;;;;;4993728;28;20042;-61
2023/07/08 12:01:48;;;;;;;2.10;1.15;;;;;;;;;;4993644;28;20480;-61
2023/07/08 12:04:26;;;;;;;1.65;0.90;;;;;;;;;;4993496;28;20092;-61
2023/07/08 12:07:05;;;;;;;1.33;0.90;;;;;;;;;;4992698;28;20072;-61
2023/07/08 12:09:37;;;;;;;2.05;1.30;;;;;;;;;;4993455;28;20018;-61
2023/07/08 12:12:07;;;;;;;1.85;1.20;;;;;;;;;;4993449;28;20030;-61
2023/07/08 12:14:34;;;;;;;2.15;0.93;;;;;;;;;;4993428;28;20477;-61
2023/07/08 12:17:01;;;;;;;1.20;0.88;;;;;;;;;;4993280;28;20054;-61
2023/07/08 12:19:31;;;;;;;2.25;1.10;;;;;;;;;;4993348;28;20026;-61
2023/07/08 12:21:59;;;;;;;1.73;1.00;;;;;;;;;;4993292;28;20058;-61
2023/07/08 12:24:27;;;;;;;2.15;1.05;;;;;;;;;;4993160;28;20682;-62
2023/07/08 12:26:54;;;;;;;2.47;1.10;;;;;;;;;;4993011;28;20035;-61
2023/07/08 12:29:21;;;;;;;3.35;1.17;;;;;;;;;;4993108;28;20026;-61
2023/07/08 12:31:48;;;;;;;1.80;1.20;;;;;;;;;;4993006;28;20033;-61
2023/07/08 12:34:16;;;;;;;2.15;1.05;;;;;;;;;;4993061;28;20080;-62
2023/07/08 12:36:47;;;;;;;1.90;1.00;;;;;;;;;;4992908;28;20072;-61
2023/07/08 12:39:16;;;;;;;2.72;0.88;;;;;;;;;;4992905;28;20400;-61
2023/07/08 12:41:44;;;;;;;2.30;1.23;;;;;;;;;;4993495;28;20031;-62
2023/07/08 12:44:35;;;;;;;2.38;1.10;;;;;;;;;;4993043;28;20092;-61
2023/07/08 12:47:03;;;;;;;1.85;1.15;;;;;;;;;;4992565;28;20088;-61
2023/07/08 12:49:30;;;;;;;2.72;1.20;;;;;;;;;;4992803;28;20026;-61
2023/07/08 12:51:57;;;;;;;2.38;1.00;;;;;;;;;;4992614;28;20030;-61
2023/07/08 12:54:25;;;;;;;2.42;1.30;;;;;;;;;;4992598;28;20041;-61
2023/07/08 12:56:53;;;;;;;1.67;1.20;;;;;;;;;;4992416;28;20373;-62
2023/07/08 12:59:20;;;;;;;1.95;1.10;;;;;;;;;;4992515;28;20435;-61
2023/07/08 13:01:48;;;;;;;2.30;0.93;;;;;;;;;;4992640;28;20026;-61
2023/07/08 13:04:16;;;;;;;1.70;0.93;;;;;;;;;;4992516;28;20030;-60
2023/07/08 13:06:44;;;;;;;2.55;1.30;;;;;;;;;;4992465;28;20101;-61
2023/07/08 13:09:20;;;;;;;2.13;1.20;;;;;;;;;;4992508;28;20037;-61
2023/07/08 13:11:48;;;;;;;1.83;1.00;;;;;;;;;;4992515;28;20057;-61
2023/07/08 13:14:15;;;;;;;1.35;0.93;;;;;;;;;;4992427;28;20040;-61
2023/07/08 13:16:43;;;;;;;1.90;1.10;;;;;;;;;;4992331;28;20054;-61
2023/07/08 13:19:12;;;;;;;2.03;0.95;;;;;;;;;;4992225;28;20097;-61
2023/07/08 13:21:40;;;;;;;1.95;0.90;;;;;;;;;;4992656;28;20027;-61
2023/07/08 13:24:13;;;;;;;2.85;1.20;;;;;;;;;;4992156;28;20034;-61
2023/07/08 13:26:41;;;;;;;2.50;1.20;;;;;;;;;;4992232;28;20018;-61
2023/07/08 13:29:18;;;;;;;2.63;1.20;;;;;;;;;;4992178;28;20503;-61
2023/07/08 13:31:49;;;;;;;1.92;0.98;;;;;;;;;;4992331;28;20121;-62
2023/07/08 13:34:20;;;;;;;1.63;1.00;;;;;;;;;;4992284;28;20034;-62
2023/07/08 13:36:50;;;;;;;2.83;1.38;;;;;;;;;;4992193;28;20018;-61
2023/07/08 13:39:23;;;;;;;2.25;1.40;;;;;;;;;;4992258;28;20019;-61
2023/07/08 13:41:51;;;;;;;1.85;1.30;;;;;;;;;;4992188;28;20101;-61
2023/07/08 13:44:18;;;;;;;2.85;1.38;;;;;;;;;;4992136;28;20031;-61
2023/07/08 13:46:54;;;;;;;2.08;1.33;;;;;;;;;;4992018;28;20536;-61
2023/07/08 13:49:27;;;;;;;3.22;1.10;;;;;;;;;;4992058;28;20038;-61
2023/07/08 13:52:14;;;;;;;3.03;1.52;;;;;;;;;;4992001;28;20105;-61
2023/07/08 13:54:50;;;;;;;2.40;1.40;;;;;;;;;;4981923;28;20069;-62
2023/07/08 13:57:18;;;;;;;2.53;1.45;;;;;;;;;;4991832;28;20093;-61
2023/07/08 13:59:45;;;;;;;2.40;1.40;;;;;;;;;;4992094;28;20023;-61
2023/07/08 14:02:17;;;;;;;2.45;1.58;;;;;;;;;;4991932;28;20089;-61
2023/07/08 14:04:45;;;;;;;3.40;1.60;;;;;;;;;;4992014;28;20110;-61
2023/07/08 14:07:17;;;;;;;4.00;1.88;;;;;;;;;;4991929;28;20022;-61
2023/07/08 14:09:44;;;;;;;5.45;1.45;;;;;;;;;;4991860;28;20027;-61
2023/07/08 14:12:11;;;;;;;2.72;1.52;;;;;;;;;;4991947;28;20101;-62
2023/07/08 14:14:38;;;;;;;3.92;1.35;;;;;;;;;;4991929;28;20026;-62
2023/07/08 14:17:05;;;;;;;3.28;1.70;;;;;;;;;;4991588;28;20362;-61
2023/07/08 14:19:33;;;;;;;3.72;1.90;;;;;;;;;;4991852;28;20018;-61
2023/07/08 14:22:11;;;;;;;3.03;1.50;;;;;;;;;;4991876;28;20025;-61
2023/07/08 14:24:38;;;;;;;4.05;1.80;;;;;;;;;;4992138;28;20146;-62
2023/07/08 14:27:05;;;;;;;4.80;1.88;;;;;;;;;;4991729;28;20050;-61
2023/07/08 14:29:32;;;;;;;3.38;1.67;;;;;;;;;;4991841;28;20018;-61
2023/07/08 14:31:59;;;;;;;2.92;1.60;;;;;;;;;;4995284;28;20038;-61
2023/07/08 14:34:27;;;;;;;4.20;2.05;;;;;;;;;;4995325;28;20033;-61
2023/07/08 14:36:54;;;;;;;4.30;1.95;;;;;;;;;;4995191;28;20026;-61
2023/07/08 14:39:21;;;;;;;4.15;1.70;;;;;;;;;;4995172;28;20025;-61
2023/07/08 14:41:49;;;;;;;3.50;2.00;;;;;;;;;;4995158;28;20023;-61
2023/07/08 14:44:24;;;;;;;2.95;1.80;;;;;;;;;;4995060;28;20030;-61
2023/07/08 14:46:51;;;;;;;4.90;1.90;;;;;;;;;;4994964;28;20515;-61
2023/07/08 14:49:22;;;;;;;1.98;1.35;;;;;;;;;;4994988;28;20522;-61
2023/07/08 14:51:49;;;;;;;3.17;1.70;;;;;;;;;;4994916;28;20400;-61
2023/07/08 14:54:16;;;;;;;2.75;1.90;;;;;;;;;;4994958;28;20030;-61
2023/07/08 14:56:43;;;;;;;4.07;1.52;;;;;;;;;;4994793;28;20094;-61